createdAt,value
2019-04-11T00:03:58.296Z,11.53
2019-04-11T00:09:02.656Z,11.05
2019-04-11T00:14:07.423Z,13.38
2019-04-11T00:19:12.201Z,11.60
2019-04-11T00:24:16.101Z,14.60
2019-04-11T00:29:20.545Z,15.13
2019-04-11T00:34:24.318Z,17.67
2019-04-11T00:39:27.929Z,13.10
2019-04-11T00:44:32.581Z,15.05
2019-04-11T00:49:36.648Z,15.63
2019-04-11T00:54:40.721Z,15.15
2019-04-11T00:59:44.784Z,15.60
2019-04-11T01:04:48.790Z,11.90
2019-04-11T01:09:52.767Z,12.53
2019-04-11T01:14:57.302Z,11.45
2019-04-11T01:20:02.835Z,16.40
2019-04-11T01:25:08.382Z,14.43
2019-04-11T01:30:15.845Z,14.05
2019-04-11T01:35:19.449Z,14.40
2019-04-11T01:40:23.439Z,13.78
2019-04-11T01:45:29.513Z,13.03
2019-04-11T01:50:34.914Z,13.93
2019-04-11T01:55:38.827Z,13.50
2019-04-11T02:00:54.544Z,13.08
2019-04-11T02:05:59.171Z,12.07
2019-04-11T02:11:03.388Z,13.25
2019-04-11T02:16:08.411Z,12.43
2019-04-11T02:21:12.094Z,12.30
2019-04-11T02:26:17.290Z,10.90
2019-04-11T02:31:22.880Z,14.63
2019-04-11T02:36:27.218Z,12.20
2019-04-11T02:41:33.468Z,12.60
2019-04-11T02:46:44.919Z,11.48
2019-04-11T02:51:43.048Z,11.48
2019-04-11T02:56:50.308Z,12.70
2019-04-11T03:01:53.074Z,11.90
2019-04-11T03:06:57.380Z,11.08
2019-04-11T03:12:02.936Z,13.18
2019-04-11T03:17:16.342Z,12.98
2019-04-11T03:22:14.073Z,11.65
2019-04-11T03:27:19.619Z,11.22
2019-04-11T03:37:53.927Z,14.80
2019-04-11T03:42:50.267Z,12.20
2019-04-11T03:47:59.104Z,12.15
2019-04-11T03:52:49.568Z,13.95
2019-04-11T03:57:56.007Z,14.00
2019-04-11T04:03:00.017Z,14.53
2019-04-11T04:08:06.145Z,12.25
2019-04-11T04:13:15.337Z,12.73
2019-04-11T04:18:17.249Z,11.43
2019-04-11T04:23:27.204Z,13.50
2019-04-11T04:28:31.755Z,11.00
2019-04-11T04:33:37.749Z,12.45
2019-04-11T04:38:44.544Z,12.07
2019-04-11T04:43:50.769Z,14.40
2019-04-11T04:48:56.151Z,13.62
2019-04-11T04:54:00.459Z,12.05
2019-04-11T04:59:04.903Z,13.25
2019-04-11T05:04:11.209Z,13.53
2019-04-11T05:09:14.808Z,13.45
2019-04-11T05:14:18.900Z,13.70
2019-04-11T05:19:23.717Z,12.60
2019-04-11T05:24:28.312Z,14.30
2019-04-11T05:29:32.033Z,13.40
2019-04-11T05:34:35.659Z,14.40
2019-04-11T05:39:39.833Z,16.02
2019-04-11T05:44:45.164Z,14.70
2019-04-11T05:49:56.868Z,17.12
2019-04-11T05:55:02.902Z,15.90
2019-04-11T06:00:09.758Z,17.48
2019-04-11T06:05:15.282Z,15.45
2019-04-11T06:10:20.533Z,14.43
2019-04-11T06:15:27.091Z,14.93
2019-04-11T06:20:35.564Z,13.90
2019-04-11T06:25:53.398Z,14.60
2019-04-11T06:31:15.992Z,13.35
2019-04-11T06:36:21.574Z,17.95
2019-04-11T06:41:30.599Z,19.48
2019-04-11T06:46:55.874Z,14.70
2019-04-11T06:52:13.205Z,16.48
2019-04-11T06:57:21.533Z,20.90
2019-04-11T07:02:27.835Z,18.90
2019-04-11T07:07:34.370Z,17.80
2019-04-11T07:12:42.789Z,17.35
2019-04-11T07:18:07.135Z,19.40
2019-04-11T07:23:28.534Z,21.70
2019-04-11T07:28:36.420Z,19.87
2019-04-11T07:33:47.762Z,18.77
2019-04-11T07:39:07.962Z,18.65
2019-04-11T07:44:13.113Z,17.32
2019-04-11T07:49:35.345Z,13.93
2019-04-11T07:54:39.061Z,30.77
2019-04-11T07:59:44.455Z,20.50
2019-04-11T08:04:53.328Z,26.60
2019-04-11T08:10:02.450Z,25.95
2019-04-11T08:15:25.844Z,25.52
2019-04-11T08:20:47.806Z,25.48
2019-04-11T08:25:55.836Z,23.15
2019-04-11T08:31:03.689Z,23.85
2019-04-11T08:36:26.100Z,24.00
2019-04-11T08:41:37.957Z,27.35
2019-04-11T08:46:44.730Z,20.50
2019-04-11T08:51:49.592Z,26.33
2019-04-11T08:56:53.599Z,30.77
2019-04-11T09:01:57.436Z,32.20
2019-04-11T09:07:01.257Z,26.42
2019-04-11T09:12:06.718Z,25.05
2019-04-11T09:17:12.354Z,18.15
2019-04-11T09:22:17.875Z,26.17
2019-04-11T09:27:40.477Z,28.52
2019-04-11T09:32:48.711Z,26.55
2019-04-11T09:37:52.332Z,24.25
2019-04-11T09:43:14.060Z,25.23
2019-04-11T09:48:34.662Z,21.95
2019-04-11T09:53:41.053Z,24.87
2019-04-11T09:58:47.641Z,24.02
2019-04-11T10:03:52.845Z,22.98
2019-04-11T10:08:59.614Z,24.35
2019-04-11T10:14:07.263Z,21.02
2019-04-11T10:19:15.809Z,24.23
2019-04-11T10:24:36.750Z,26.77
2019-04-11T10:29:54.670Z,21.50
2019-04-11T10:35:12.195Z,18.30
2019-04-11T10:40:17.805Z,23.60
2019-04-11T10:45:23.105Z,21.15
2019-04-11T10:50:44.522Z,20.45
2019-04-11T10:55:53.724Z,17.30
2019-04-11T11:01:04.993Z,27.62
2019-04-11T11:06:11.286Z,21.87
2019-04-11T11:11:17.895Z,27.87
2019-04-11T11:16:24.395Z,23.35
2019-04-11T11:21:33.309Z,21.15
2019-04-11T11:26:34.008Z,21.48
2019-04-11T11:31:40.620Z,19.10
2019-04-11T11:36:50.435Z,24.70
2019-04-11T11:42:12.381Z,20.10
2019-04-11T11:47:38.682Z,18.25
2019-04-11T11:52:59.427Z,38.33
2019-04-11T11:58:21.610Z,19.95
2019-04-11T12:03:44.238Z,15.28
2019-04-11T12:08:58.140Z,14.07
2019-04-11T12:14:04.055Z,12.73
2019-04-11T12:19:22.231Z,13.65
2019-04-11T12:24:30.846Z,16.23
2019-04-11T12:29:38.674Z,17.57
2019-04-11T12:34:59.787Z,18.07
2019-04-11T12:40:21.783Z,20.00
2019-04-11T12:45:36.203Z,19.02
2019-04-11T12:50:57.424Z,18.05
2019-04-11T12:56:08.535Z,23.92
2019-04-11T13:01:14.835Z,15.48
2019-04-11T13:06:20.066Z,20.43
2019-04-11T13:11:25.319Z,21.35
2019-04-11T13:16:28.904Z,22.20
2019-04-11T13:21:40.594Z,19.65
2019-04-11T13:27:06.387Z,20.55
2019-04-11T13:32:28.193Z,18.57
2019-04-11T13:37:49.424Z,25.65
2019-04-11T13:43:03.627Z,20.35
2019-04-11T13:48:08.881Z,21.20
2019-04-11T13:53:32.012Z,19.75
2019-04-11T13:58:56.029Z,23.30
2019-04-11T14:04:01.297Z,19.35
2019-04-11T14:09:15.009Z,22.62
2019-04-11T14:14:21.301Z,21.00
2019-04-11T14:19:26.630Z,22.40
2019-04-11T14:24:31.938Z,23.73
2019-04-11T14:29:39.806Z,19.37
2019-04-11T14:34:54.216Z,19.17
2019-04-11T14:40:11.409Z,21.27
2019-04-11T14:45:16.721Z,23.52
2019-04-11T14:50:20.283Z,24.00
2019-04-11T14:55:25.507Z,24.70
2019-04-11T15:00:30.759Z,21.75
2019-04-11T15:05:38.647Z,21.73
2019-04-11T15:10:47.944Z,24.45
2019-04-11T15:15:58.035Z,25.48
2019-04-11T15:21:06.847Z,26.35
2019-04-11T15:26:27.904Z,24.92
2019-04-11T15:31:39.811Z,25.77
2019-04-11T15:36:45.147Z,27.25
2019-04-11T15:41:53.732Z,26.27
2019-04-11T15:46:57.359Z,27.98
2019-04-11T15:52:06.293Z,28.30
2019-04-11T15:57:12.295Z,27.37
2019-04-11T16:02:16.626Z,25.92
2019-04-11T16:07:38.298Z,33.33
2019-04-11T16:12:52.504Z,27.85
2019-04-11T16:18:16.097Z,31.35
2019-04-11T16:23:23.814Z,27.95
2019-04-11T16:28:44.440Z,29.90
2019-04-11T16:33:50.360Z,28.27
2019-04-11T16:38:58.257Z,25.52
2019-04-11T16:44:04.040Z,24.75
2019-04-11T16:49:07.623Z,23.92
2019-04-11T16:54:11.236Z,24.00
2019-04-11T16:59:14.794Z,22.77
2019-04-11T17:04:18.342Z,25.15
2019-04-11T17:09:38.881Z,24.02
2019-04-11T17:14:42.467Z,20.05
2019-04-11T17:19:46.088Z,17.32
2019-04-11T17:24:49.723Z,19.87
2019-04-11T17:29:55.373Z,16.90
2019-04-11T17:35:01.908Z,20.35
2019-04-11T17:40:07.696Z,16.27
2019-04-11T17:45:11.778Z,19.52
2019-04-11T17:50:15.532Z,20.32
2019-04-11T17:55:19.138Z,17.20
2019-04-11T18:00:24.436Z,19.35
2019-04-11T18:05:29.144Z,14.20
2019-04-11T18:10:32.763Z,16.02
2019-04-11T18:15:37.894Z,16.55
2019-04-11T18:20:43.178Z,18.80
2019-04-11T18:25:48.911Z,17.57
2019-04-11T18:30:54.025Z,15.88
2019-04-11T18:36:01.738Z,17.20
2019-04-11T18:41:03.737Z,15.45
2019-04-11T18:46:09.083Z,13.40
2019-04-11T18:51:12.702Z,12.65
2019-04-11T18:56:16.351Z,13.88
2019-04-11T19:01:21.132Z,14.07
2019-04-11T19:06:28.143Z,17.48
2019-04-11T19:11:30.078Z,15.55
2019-04-11T19:16:33.698Z,12.93
2019-04-11T19:21:37.429Z,15.90
2019-04-11T19:26:41.042Z,12.43
2019-04-11T19:31:44.622Z,17.65
2019-04-11T19:36:48.203Z,16.07
2019-04-11T19:41:51.860Z,16.05
2019-04-11T19:46:55.538Z,17.35
2019-04-11T19:52:01.481Z,13.50
2019-04-11T19:57:06.176Z,11.53
2019-04-11T20:02:09.895Z,10.78
2019-04-11T20:07:13.536Z,13.18
2019-04-11T20:12:17.075Z,13.93
2019-04-11T20:17:20.793Z,14.28
2019-04-11T20:22:24.890Z,14.78
2019-04-11T20:27:28.503Z,11.88
2019-04-11T20:32:33.151Z,16.97
2019-04-11T20:37:39.459Z,16.45
2019-04-11T20:42:42.612Z,17.15
2019-04-11T20:47:46.308Z,15.28
2019-04-11T20:52:49.962Z,17.32
2019-04-11T20:57:53.603Z,16.25
2019-04-11T21:02:58.324Z,11.60
2019-04-11T21:08:03.644Z,15.35
2019-04-11T21:13:07.817Z,17.00
2019-04-11T21:18:11.668Z,14.98
2019-04-11T21:23:23.951Z,11.50
2019-04-11T21:28:20.604Z,12.90
2019-04-11T21:33:24.159Z,14.55
2019-04-11T21:38:28.086Z,14.73
2019-04-11T21:43:35.842Z,16.20
2019-04-11T21:48:38.325Z,14.45
2019-04-11T21:53:44.422Z,15.15
2019-04-11T21:58:49.937Z,15.13
2019-04-11T22:03:56.990Z,15.83
2019-04-11T22:08:58.198Z,13.62
2019-04-11T22:14:01.791Z,14.13
2019-04-11T22:19:05.506Z,14.20
2019-04-11T22:24:09.168Z,13.40
2019-04-11T22:29:12.826Z,11.88
2019-04-11T22:34:30.135Z,8.90
2019-04-11T22:39:33.736Z,8.78
2019-04-11T22:44:38.069Z,10.50
2019-04-11T22:49:42.420Z,10.32
2019-04-11T22:54:45.973Z,12.63
2019-04-11T22:59:49.602Z,17.42
2019-04-11T23:04:53.193Z,18.15
2019-04-11T23:09:56.789Z,21.37
2019-04-11T23:15:00.409Z,22.30
2019-04-11T23:20:06.697Z,20.88
2019-04-11T23:25:10.418Z,18.87
2019-04-11T23:30:15.920Z,16.27
2019-04-11T23:35:21.250Z,11.78
2019-04-11T23:40:25.341Z,11.08
2019-04-11T23:45:30.020Z,11.55
2019-04-11T23:50:33.632Z,11.50
2019-04-11T23:55:37.273Z,10.95
